Time;durP1;ratioP1;P1;durP2;ratioP2;P2;SDS_P1;SDS_P2;PMS_P1;PMS_P2;Temp;Humidity;BMP_temperature;BMP_pressure;BME280_temperature;BME280_humidity;BME280_pressure;Samples;Min_cycle;Max_cycle;Signal;HPM_P1;HPM_P2
2021/05/20 00:00:31;;;;;;;19.67;17.40;;;13.50;99.90;;;;;;5052726;28;20519;-73
2021/05/20 00:02:57;;;;;;;19.87;17.77;;;13.50;99.90;;;;;;5052190;28;20170;-76
2021/05/20 00:05:22;;;;;;;20.07;17.50;;;13.50;99.90;;;;;;5052173;28;20608;-73
2021/05/20 00:07:48;;;;;;;21.87;19.17;;;13.50;99.90;;;;;;5050842;28;20722;-73
2021/05/20 00:10:16;;;;;;;22.33;19.73;;;13.50;99.90;;;;;;5034076;28;20201;-73
2021/05/20 00:12:43;;;;;;;20.50;18.30;;;13.50;99.90;;;;;;5052615;28;20653;-73
2021/05/20 00:15:10;;;;;;;20.83;18.57;;;13.50;99.90;;;;;;5051438;28;20405;-73
2021/05/20 00:17:35;;;;;;;22.90;19.13;;;13.50;99.90;;;;;;5052158;28;20590;-73
2021/05/20 00:20:02;;;;;;;20.40;18.30;;;13.50;99.90;;;;;;5051804;28;20412;-77
2021/05/20 00:22:29;;;;;;;22.83;19.53;;;13.50;99.90;;;;;;5042260;28;20212;-73
2021/05/20 00:24:55;;;;;;;21.70;19.33;;;13.50;99.90;;;;;;5032222;28;20800;-73
2021/05/20 00:27:21;;;;;;;21.17;18.20;;;13.40;99.90;;;;;;5031025;28;20469;-73
2021/05/20 00:29:49;;;;;;;21.60;18.53;;;13.50;99.90;;;;;;5031702;28;20448;-73
2021/05/20 00:32:15;;;;;;;22.00;18.37;;;13.40;99.90;;;;;;5031492;28;20531;-73
2021/05/20 00:34:41;;;;;;;21.30;18.20;;;13.40;99.90;;;;;;5032305;28;20413;-73
2021/05/20 00:37:06;;;;;;;23.47;20.00;;;13.40;99.90;;;;;;5031447;28;20888;-73
2021/05/20 00:39:32;;;;;;;23.47;18.23;;;13.40;99.90;;;;;;4998384;28;20452;-73
2021/05/20 00:42:06;;;;;;;22.53;20.07;;;13.30;99.90;;;;;;5040209;28;20203;-73
2021/05/20 00:44:31;;;;;;;25.03;20.70;;;13.30;99.90;;;;;;5051940;28;20173;-73
2021/05/20 00:46:57;;;;;;;21.80;19.50;;;13.30;99.90;;;;;;5052086;28;20808;-73
2021/05/20 00:49:23;;;;;;;21.57;19.23;;;13.30;99.90;;;;;;5051257;28;20189;-73
2021/05/20 00:51:48;;;;;;;21.53;18.97;;;13.30;99.90;;;;;;5034189;28;20205;-73
2021/05/20 00:54:14;;;;;;;21.23;18.97;;;13.30;99.90;;;;;;5051320;28;20169;-73
2021/05/20 00:56:41;;;;;;;20.23;18.13;;;13.20;99.90;;;;;;5052003;28;20190;-73
2021/05/20 00:59:07;;;;;;;20.40;18.20;;;13.20;99.90;;;;;;5051141;28;20180;-73
2021/05/20 01:01:33;;;;;;;19.80;17.70;;;13.30;99.90;;;;;;5043971;28;20421;-73
2021/05/20 01:03:59;;;;;;;19.97;17.73;;;13.20;99.90;;;;;;5031995;28;20401;-73
2021/05/20 01:06:25;;;;;;;20.83;17.83;;;13.20;99.90;;;;;;5031742;28;20452;-73
2021/05/20 01:08:51;;;;;;;21.53;17.80;;;13.20;99.90;;;;;;5031800;28;20428;-73
2021/05/20 01:11:18;;;;;;;21.60;18.07;;;13.20;99.90;;;;;;5031166;28;20171;-73
2021/05/20 01:13:44;;;;;;;20.40;18.00;;;13.20;99.90;;;;;;5031957;28;20178;-73
2021/05/20 01:16:11;;;;;;;24.47;18.10;;;13.10;99.90;;;;;;5030518;28;20428;-73
2021/05/20 01:18:37;;;;;;;19.40;17.40;;;13.10;99.90;;;;;;5031853;28;20239;-73
2021/05/20 01:21:03;;;;;;;21.37;19.07;;;13.10;99.90;;;;;;5032866;28;20414;-76
2021/05/20 01:23:28;;;;;;;20.93;18.70;;;13.00;99.90;;;;;;5051616;28;20174;-73
2021/05/20 01:25:54;;;;;;;23.27;19.00;;;13.00;99.90;;;;;;5051810;28;20457;-73
2021/05/20 01:28:22;;;;;;;21.63;19.33;;;13.00;99.90;;;;;;5050570;28;20551;-73
2021/05/20 01:30:49;;;;;;;22.63;18.13;;;12.90;99.90;;;;;;5051685;28;20637;-73
2021/05/20 01:33:15;;;;;;;21.50;18.67;;;13.00;99.90;;;;;;5050559;28;20416;-73
2021/05/20 01:35:42;;;;;;;21.67;19.27;;;13.00;99.90;;;;;;5051625;28;20404;-73
2021/05/20 01:38:54;;;;;;;26.23;19.30;;;13.00;99.90;;;;;;5050310;28;20412;-73
2021/05/20 01:41:03;;;;;;;22.20;19.30;;;13.00;99.90;;;;;;5028334;28;20430;-73
2021/05/20 01:43:30;;;;;;;22.57;19.40;;;13.00;99.90;;;;;;5017311;28;20418;-73
2021/05/20 01:48:22;;;;;;;22.53;20.10;;;13.10;99.90;;;;;;5034515;28;20409;-73
2021/05/20 01:50:47;;;;;;;23.60;20.80;;;13.10;99.90;;;;;;5035222;28;20167;-73
2021/05/20 01:53:13;;;;;;;24.40;21.80;;;13.10;99.90;;;;;;5035201;28;20656;-73
2021/05/20 01:55:39;;;;;;;25.67;21.33;;;13.10;99.90;;;;;;5055331;28;20196;-73
2021/05/20 01:58:05;;;;;;;28.90;21.90;;;13.20;99.90;;;;;;5054595;28;20419;-76
2021/05/20 02:00:31;;;;;;;24.70;21.53;;;13.20;99.90;;;;;;5053191;28;20431;-73
2021/05/20 02:02:57;;;;;;;26.40;21.60;;;13.20;99.90;;;;;;5054955;28;20170;-73
2021/05/20 02:05:22;;;;;;;27.57;21.60;;;13.20;99.90;;;;;;5054113;28;20198;-73
2021/05/20 02:07:48;;;;;;;24.77;21.03;;;13.20;99.90;;;;;;5054509;28;20202;-73
2021/05/20 02:10:14;;;;;;;25.33;21.60;;;13.20;99.90;;;;;;5036230;28;20189;-74
2021/05/20 02:12:40;;;;;;;30.70;23.73;;;13.20;99.90;;;;;;5054761;28;20426;-73
2021/05/20 02:15:06;;;;;;;33.30;23.70;;;13.20;99.90;;;;;;5052951;28;20256;-76
2021/05/20 02:17:32;;;;;;;30.33;24.23;;;13.20;99.90;;;;;;5052580;28;20186;-73
2021/05/20 02:19:58;;;;;;;31.37;23.10;;;13.20;99.90;;;;;;5054713;28;20411;-73
2021/05/20 02:22:24;;;;;;;31.67;24.60;;;13.20;99.90;;;;;;5053512;28;20166;-73
2021/05/20 02:24:49;;;;;;;33.97;26.47;;;13.20;99.90;;;;;;5051578;28;20699;-73
2021/05/20 02:27:15;;;;;;;34.20;26.23;;;13.20;99.90;;;;;;5073524;28;20550;-73
2021/05/20 02:29:41;;;;;;;34.73;25.77;;;13.30;99.90;;;;;;5074042;28;20220;-73
2021/05/20 02:32:06;;;;;;;38.83;27.83;;;13.20;99.90;;;;;;5073794;28;20573;-76
2021/05/20 02:34:32;;;;;;;35.77;27.17;;;13.20;99.90;;;;;;5060348;28;20177;-73
2021/05/20 02:36:58;;;;;;;39.87;26.97;;;13.20;99.90;;;;;;5054267;28;20177;-73
2021/05/20 02:39:23;;;;;;;37.80;27.80;;;13.20;99.90;;;;;;5053512;28;20182;-73
2021/05/20 02:41:50;;;;;;;41.47;27.43;;;13.20;99.90;;;;;;5053869;28;20185;-73
2021/05/20 02:44:15;;;;;;;40.37;28.27;;;13.20;99.90;;;;;;5052203;28;20197;-73
2021/05/20 02:46:41;;;;;;;49.90;31.83;;;13.20;99.90;;;;;;5054061;28;20458;-73
2021/05/20 02:49:07;;;;;;;42.00;28.90;;;13.30;99.90;;;;;;5054322;28;20637;-77
2021/05/20 02:51:33;;;;;;;45.53;29.70;;;13.30;99.90;;;;;;5053066;28;20181;-73
2021/05/20 02:53:58;;;;;;;46.20;31.20;;;13.30;99.90;;;;;;5054005;28;20174;-73
2021/05/20 02:56:24;;;;;;;49.73;31.07;;;13.30;99.90;;;;;;5051970;28;20184;-73
2021/05/20 02:58:50;;;;;;;46.10;31.83;;;13.20;99.90;;;;;;5053953;28;20227;-73
2021/05/20 03:01:15;;;;;;;48.53;31.57;;;13.20;99.90;;;;;;5053079;28;20178;-73
2021/05/20 03:03:41;;;;;;;53.40;32.00;;;13.10;99.90;;;;;;5053984;28;20265;-73
2021/05/20 03:06:07;;;;;;;53.90;33.57;;;13.20;99.90;;;;;;5053814;28;20291;-74
2021/05/20 03:08:33;;;;;;;49.13;32.07;;;13.20;99.90;;;;;;5053155;28;20188;-73
2021/05/20 03:10:59;;;;;;;48.27;32.27;;;13.20;99.90;;;;;;5053214;28;20515;-73
2021/05/20 03:13:24;;;;;;;45.33;30.97;;;13.20;99.90;;;;;;5052869;28;20507;-73
2021/05/20 03:15:50;;;;;;;51.87;32.13;;;13.20;99.90;;;;;;5052614;28;20204;-73
2021/05/20 03:18:16;;;;;;;50.03;32.80;;;13.20;99.90;;;;;;5051330;28;20174;-73
2021/05/20 03:20:42;;;;;;;47.30;31.90;;;13.20;99.90;;;;;;5053526;28;20192;-73
2021/05/20 03:23:07;;;;;;;49.63;31.87;;;13.10;99.90;;;;;;5062465;28;20188;-73
2021/05/20 03:25:36;;;;;;;48.30;30.90;;;13.20;99.90;;;;;;5057449;28;20548;-74
2021/05/20 03:28:02;;;;;;;49.10;31.33;;;13.20;99.90;;;;;;5053044;28;20213;-73
2021/05/20 03:30:29;;;;;;;53.20;31.10;;;13.10;99.90;;;;;;5052442;28;20448;-73
2021/05/20 03:32:54;;;;;;;55.13;31.90;;;13.10;99.90;;;;;;5053351;28;20472;-73
2021/05/20 03:35:20;;;;;;;52.07;31.73;;;13.10;99.90;;;;;;5052272;28;20417;-73
2021/05/20 03:37:46;;;;;;;54.30;33.70;;;13.10;99.90;;;;;;5035431;28;20182;-73
2021/05/20 03:40:12;;;;;;;55.90;32.47;;;13.10;99.90;;;;;;5052512;28;20441;-76
2021/05/20 03:42:38;;;;;;;52.20;32.00;;;13.10;99.90;;;;;;5047135;28;20256;-73
2021/05/20 03:45:05;;;;;;;56.80;32.13;;;13.10;99.90;;;;;;5015244;28;20416;-73
2021/05/20 03:47:31;;;;;;;53.80;31.60;;;13.20;99.90;;;;;;5032219;28;20194;-73
2021/05/20 03:49:56;;;;;;;50.27;31.40;;;13.10;99.90;;;;;;5033054;28;20512;-73
2021/05/20 03:52:22;;;;;;;59.33;33.60;;;13.10;99.90;;;;;;5031962;28;20174;-73
2021/05/20 03:54:48;;;;;;;58.60;32.70;;;13.10;99.90;;;;;;5032627;28;20248;-73
2021/05/20 03:57:13;;;;;;;57.57;31.67;;;13.10;99.90;;;;;;5032233;28;20198;-76
2021/05/20 03:59:39;;;;;;;53.43;31.20;;;13.10;99.90;;;;;;5015406;28;20210;-73
2021/05/20 04:02:06;;;;;;;65.23;33.23;;;13.20;99.90;;;;;;5032295;28;20216;-73
2021/05/20 04:04:32;;;;;;;54.67;29.47;;;13.10;99.90;;;;;;5034650;28;20244;-73
2021/05/20 04:06:58;;;;;;;55.70;31.10;;;13.10;99.90;;;;;;5032928;28;20503;-73
2021/05/20 04:09:23;;;;;;;48.30;29.77;;;13.20;99.90;;;;;;5014317;28;20452;-73
2021/05/20 04:11:49;;;;;;;55.17;32.70;;;13.20;99.90;;;;;;5032700;28;20181;-73
2021/05/20 04:14:15;;;;;;;55.17;29.60;;;13.20;99.90;;;;;;5044040;28;20255;-76
2021/05/20 04:16:40;;;;;;;52.73;29.20;;;13.20;99.90;;;;;;5050761;28;20634;-73
2021/05/20 04:19:06;;;;;;;49.63;29.33;;;13.20;99.90;;;;;;5052177;28;20178;-72
2021/05/20 04:21:33;;;;;;;48.93;28.27;;;13.20;99.90;;;;;;5048718;28;20248;-75
2021/05/20 04:23:59;;;;;;;48.50;27.80;;;13.20;99.90;;;;;;5051055;28;20178;-74
2021/05/20 04:26:24;;;;;;;54.90;30.53;;;13.30;99.90;;;;;;5032112;28;20951;-73
2021/05/20 04:28:50;;;;;;;49.20;29.17;;;13.20;99.90;;;;;;5034255;28;20543;-73
2021/05/20 04:31:17;;;;;;;47.77;28.83;;;13.30;99.90;;;;;;5051043;28;20187;-74
2021/05/20 04:33:43;;;;;;;41.27;27.50;;;13.30;99.90;;;;;;5052071;28;20177;-73
2021/05/20 04:36:09;;;;;;;46.00;26.73;;;13.30;99.90;;;;;;5050580;28;20431;-73
2021/05/20 04:38:36;;;;;;;43.43;26.90;;;13.30;99.90;;;;;;5032066;28;20424;-73
2021/05/20 04:41:02;;;;;;;42.57;26.90;;;13.30;99.90;;;;;;5032542;28;20983;-73
2021/05/20 04:43:28;;;;;;;42.50;25.67;;;13.30;99.90;;;;;;5031940;28;20444;-73
2021/05/20 04:45:54;;;;;;;45.03;27.20;;;13.30;99.90;;;;;;5034581;28;20457;-74
2021/05/20 04:48:20;;;;;;;45.90;26.53;;;13.40;99.90;;;;;;5031371;28;20194;-74
2021/05/20 04:50:46;;;;;;;41.87;24.60;;;13.30;99.90;;;;;;5032109;28;20170;-73
2021/05/20 04:53:12;;;;;;;43.97;26.80;;;13.30;99.90;;;;;;5032130;28;20475;-75
2021/05/20 04:55:37;;;;;;;44.20;27.93;;;13.40;99.90;;;;;;5031592;28;20183;-75
2021/05/20 04:58:03;;;;;;;47.77;27.40;;;13.40;99.90;;;;;;5030805;28;20209;-75
2021/05/20 05:00:29;;;;;;;45.00;27.87;;;13.40;99.90;;;;;;5051716;28;20223;-75
2021/05/20 05:02:55;;;;;;;44.67;29.07;;;13.40;99.90;;;;;;5052342;28;20186;-75
2021/05/20 05:05:21;;;;;;;43.57;26.63;;;13.40;99.90;;;;;;5051649;28;20252;-76
2021/05/20 05:07:46;;;;;;;49.20;30.40;;;13.40;99.90;;;;;;5052257;28;20603;-75
2021/05/20 05:10:12;;;;;;;47.03;27.17;;;13.50;99.90;;;;;;5034247;28;20173;-75
2021/05/20 05:12:38;;;;;;;43.20;25.70;;;13.50;99.90;;;;;;5049398;28;20622;-74
2021/05/20 05:15:05;;;;;;;43.00;27.23;;;13.50;99.90;;;;;;5033568;28;20444;-74
2021/05/20 05:17:31;;;;;;;47.30;27.93;;;13.50;99.90;;;;;;5035884;28;20426;-74
2021/05/20 05:19:57;;;;;;;43.77;25.90;;;13.50;99.90;;;;;;5039763;28;20507;-74
2021/05/20 05:22:23;;;;;;;44.70;27.33;;;13.50;99.90;;;;;;5035158;28;20505;-75
2021/05/20 05:24:48;;;;;;;42.30;26.17;;;13.50;99.90;;;;;;5035904;28;20324;-74
2021/05/20 05:27:15;;;;;;;46.73;28.40;;;13.60;99.90;;;;;;5042191;28;20246;-76
2021/05/20 05:29:43;;;;;;;45.90;28.90;;;13.60;99.90;;;;;;5017731;28;20187;-75
2021/05/20 05:32:08;;;;;;;50.77;29.13;;;13.60;99.90;;;;;;5035343;28;20936;-76
2021/05/20 05:34:34;;;;;;;45.87;30.53;;;13.60;99.90;;;;;;5048076;28;20448;-75
2021/05/20 05:37:01;;;;;;;46.03;29.10;;;13.60;99.90;;;;;;5035896;28;20534;-75
2021/05/20 05:39:27;;;;;;;48.20;31.70;;;13.60;99.90;;;;;;5035235;28;20175;-75
2021/05/20 05:41:53;;;;;;;46.73;28.80;;;13.60;99.90;;;;;;5035630;28;20417;-75
2021/05/20 05:44:19;;;;;;;48.70;29.97;;;13.60;99.90;;;;;;5035228;28;20808;-76
2021/05/20 05:46:44;;;;;;;47.60;31.30;;;13.60;99.90;;;;;;5018142;28;20206;-75
2021/05/20 05:49:16;;;;;;;43.00;28.50;;;13.60;99.90;;;;;;5052323;28;20183;-75
2021/05/20 05:51:46;;;;;;;48.83;30.37;;;13.70;99.90;;;;;;5055541;28;20163;-75
2021/05/20 05:54:12;;;;;;;46.90;31.13;;;13.70;99.90;;;;;;5037821;28;20421;-75
2021/05/20 05:56:38;;;;;;;46.30;27.10;;;13.80;99.90;;;;;;5054738;28;20432;-75
2021/05/20 05:59:04;;;;;;;42.60;27.80;;;13.90;99.90;;;;;;5044594;28;20781;-76
2021/05/20 06:01:29;;;;;;;40.40;27.50;;;13.90;99.90;;;;;;5043471;28;20248;-75
2021/05/20 06:03:57;;;;;;;40.67;26.47;;;13.90;99.90;;;;;;5047960;28;20461;-76
2021/05/20 06:06:23;;;;;;;38.87;26.90;;;13.90;99.90;;;;;;5025565;28;20463;-76
2021/05/20 06:08:48;;;;;;;39.17;25.57;;;14.00;99.90;;;;;;5048115;28;20914;-76
2021/05/20 06:11:14;;;;;;;44.20;27.27;;;14.00;99.90;;;;;;5050485;28;20577;-91
2021/05/20 06:13:40;;;;;;;34.27;24.20;;;14.00;99.90;;;;;;5072506;28;20806;-74
2021/05/20 06:16:06;;;;;;;35.50;23.00;;;14.00;99.90;;;;;;5061489;28;20271;-73
2021/05/20 06:18:31;;;;;;;38.13;24.77;;;14.00;99.90;;;;;;5035881;28;20185;-82
2021/05/20 06:20:57;;;;;;;36.47;23.67;;;14.10;99.90;;;;;;5044201;28;20183;-88
2021/05/20 06:23:23;;;;;;;37.67;26.30;;;14.20;99.90;;;;;;5033853;28;20202;-83
2021/05/20 06:25:49;;;;;;;32.73;23.43;;;14.40;99.90;;;;;;5038957;28;20306;-89
2021/05/20 06:28:15;;;;;;;34.43;23.73;;;14.70;99.90;;;;;;5042615;28;20485;-81
2021/05/20 06:30:40;;;;;;;31.80;23.37;;;15.00;99.90;;;;;;5038445;28;20191;-87
2021/05/20 06:33:06;;;;;;;26.60;21.77;;;15.30;99.90;;;;;;5025904;28;20200;-90
2021/05/20 06:35:32;;;;;;;33.90;26.77;;;15.50;99.90;;;;;;5053602;28;20320;-88
2021/05/20 06:37:57;;;;;;;33.27;24.40;;;15.70;99.90;;;;;;5052340;28;20193;-84
2021/05/20 06:40:23;;;;;;;37.03;25.97;;;16.00;99.90;;;;;;5044896;28;20195;-89
2021/05/20 06:42:49;;;;;;;38.00;24.37;;;16.20;99.80;;;;;;5021563;28;20686;-86
2021/05/20 06:45:15;;;;;;;29.33;22.40;;;16.40;98.90;;;;;;5040948;28;20184;-92
2021/05/20 06:47:40;;;;;;;31.13;23.50;;;16.60;98.60;;;;;;5045411;28;20203;-84
2021/05/20 06:50:07;;;;;;;32.60;23.50;;;16.70;97.60;;;;;;5022789;28;20191;-86
2021/05/20 06:52:33;;;;;;;32.87;22.60;;;16.80;97.90;;;;;;5021786;28;20250;-83
2021/05/20 06:54:58;;;;;;;33.40;23.80;;;16.90;97.80;;;;;;5040982;28;20440;-82
2021/05/20 06:59:56;;;;;;;30.77;23.80;;;17.00;97.20;;;;;;5037396;28;20186;-84
2021/05/20 07:00:16;;;;;;;30.37;23.10;;;17.10;97.20;;;;;;5046615;28;20219;-83
2021/05/20 07:02:42;;;;;;;27.00;21.90;;;17.30;96.80;;;;;;5049515;28;20510;-80
2021/05/20 07:05:08;;;;;;;28.83;23.00;;;17.30;96.20;;;;;;5046893;28;20523;-81
2021/05/20 07:07:38;;;;;;;33.80;23.30;;;17.40;95.40;;;;;;5037233;28;20678;-82
2021/05/20 07:10:05;;;;;;;26.73;22.50;;;17.50;95.10;;;;;;5049597;28;20504;-78
2021/05/20 07:12:30;;;;;;;26.00;19.87;;;17.50;95.50;;;;;;5045480;28;20428;-82
2021/05/20 07:14:58;;;;;;;25.83;21.47;;;17.60;95.20;;;;;;5040595;28;20478;-82
2021/05/20 07:17:24;;;;;;;25.80;20.80;;;17.60;95.40;;;;;;5045378;28;20633;-83
2021/05/20 07:19:50;;;;;;;26.17;20.53;;;17.60;94.90;;;;;;5024104;28;20417;-83
2021/05/20 07:22:15;;;;;;;27.97;20.90;;;17.70;94.60;;;;;;5020679;28;20454;-84
2021/05/20 07:24:43;;;;;;;23.73;18.90;;;17.70;94.40;;;;;;5039774;28;20319;-83
2021/05/20 07:27:09;;;;;;;21.70;19.30;;;17.80;94.30;;;;;;5052539;28;20205;-83
2021/05/20 07:29:35;;;;;;;24.23;21.70;;;17.80;93.10;;;;;;5050610;28;20974;-82
2021/05/20 07:32:00;;;;;;;21.07;18.47;;;17.80;93.00;;;;;;5039759;28;20182;-87
2021/05/20 07:34:26;;;;;;;23.73;20.00;;;17.80;92.90;;;;;;5035695;28;20232;-86
2021/05/20 07:36:52;;;;;;;22.10;18.87;;;17.70;92.70;;;;;;5024366;28;20429;-87
2021/05/20 07:39:18;;;;;;;24.53;21.97;;;17.60;92.40;;;;;;5033140;28;20894;-92
2021/05/20 07:41:45;;;;;;;24.77;22.07;;;17.60;92.90;;;;;;5040674;28;20240;-85
2021/05/20 07:44:11;;;;;;;23.07;19.80;;;17.60;93.30;;;;;;5024635;28;20534;-79
2021/05/20 07:46:36;;;;;;;24.13;21.53;;;17.60;93.20;;;;;;5049997;28;20443;-82
2021/05/20 07:49:02;;;;;;;23.70;21.10;;;17.60;93.20;;;;;;5058793;28;20185;-82
2021/05/20 07:51:28;;;;;;;20.23;18.00;;;17.40;93.80;;;;;;5039302;28;20185;-83
2021/05/20 07:53:54;;;;;;;23.00;18.27;;;17.30;93.60;;;;;;5033262;28;20447;-83
2021/05/20 07:56:20;;;;;;;20.80;16.67;;;17.20;92.70;;;;;;5035626;28;20181;-79
2021/05/20 07:58:52;;;;;;;18.53;16.13;;;17.20;92.40;;;;;;5033530;28;20436;-79
2021/05/20 08:01:17;;;;;;;22.00;17.70;;;17.00;92.40;;;;;;5033464;28;20500;-80
2021/05/20 08:03:48;;;;;;;19.67;16.90;;;17.00;92.90;;;;;;5032708;28;20972;-83
2021/05/20 08:06:18;;;;;;;22.37;20.07;;;17.10;94.00;;;;;;5044644;28;20284;-77
2021/05/20 08:09:14;;;;;;;20.27;17.07;;;17.10;94.10;;;;;;5052103;28;20961;-82
2021/05/20 08:11:31;;;;;;;25.03;18.20;;;17.10;93.30;;;;;;5050222;28;20423;-83
2021/05/20 08:13:57;;;;;;;20.90;18.60;;;17.10;93.40;;;;;;5053038;28;20469;-84
2021/05/20 08:16:22;;;;;;;23.10;19.00;;;17.00;92.40;;;;;;5051593;28;20424;-82
2021/05/20 08:18:48;;;;;;;21.80;17.00;;;16.90;92.80;;;;;;5045333;28;20269;-82
2021/05/20 08:21:15;;;;;;;22.57;17.93;;;16.80;93.90;;;;;;5021016;28;20193;-82
2021/05/20 08:23:41;;;;;;;26.33;18.07;;;16.90;93.70;;;;;;5041440;28;20525;-83
2021/05/20 08:26:07;;;;;;;20.67;16.20;;;16.90;94.90;;;;;;5040557;28;20462;-83
2021/05/20 08:28:34;;;;;;;20.20;15.60;;;17.00;94.60;;;;;;5040243;28;20188;-83
2021/05/20 08:30:59;;;;;;;19.53;16.50;;;17.00;93.20;;;;;;5018793;28;20417;-83
2021/05/20 08:33:25;;;;;;;20.10;17.00;;;17.00;92.70;;;;;;5031435;28;20981;-83
2021/05/20 08:35:51;;;;;;;19.50;17.20;;;17.10;93.30;;;;;;5038653;28;20217;-83
2021/05/20 08:38:18;;;;;;;21.30;16.80;;;17.30;94.10;;;;;;5032035;28;20623;-83
2021/05/20 08:40:44;;;;;;;21.13;16.23;;;17.40;94.50;;;;;;5039373;28;20509;-84
2021/05/20 08:43:09;;;;;;;20.77;16.90;;;17.60;94.10;;;;;;5039337;28;20921;-84
2021/05/20 08:45:37;;;;;;;17.73;15.60;;;17.70;95.20;;;;;;5038758;28;20511;-83
2021/05/20 08:48:03;;;;;;;17.80;14.90;;;17.80;93.60;;;;;;5039556;28;20205;-84
2021/05/20 08:50:31;;;;;;;20.10;16.20;;;17.80;93.40;;;;;;5040137;28;20443;-87
2021/05/20 08:52:57;;;;;;;20.33;16.80;;;17.80;93.10;;;;;;5041465;28;20921;-83
2021/05/20 08:55:28;;;;;;;18.17;16.17;;;17.70;92.40;;;;;;5021923;28;20422;-83
2021/05/20 08:57:56;;;;;;;17.63;15.53;;;17.70;93.30;;;;;;5005153;28;20429;-83
2021/05/20 09:00:24;;;;;;;19.13;17.13;;;17.70;93.30;;;;;;5041971;28;20493;-83
2021/05/20 09:02:51;;;;;;;16.70;15.00;;;17.80;93.70;;;;;;5040372;28;20409;-84
2021/05/20 09:05:18;;;;;;;16.20;14.50;;;18.00;93.50;;;;;;5040218;28;20934;-84
2021/05/20 09:07:52;;;;;;;16.17;14.50;;;18.10;92.80;;;;;;5039411;28;20537;-83
2021/05/20 09:10:20;;;;;;;16.17;14.57;;;18.20;92.00;;;;;;5040280;28;20426;-84
2021/05/20 09:12:51;;;;;;;15.17;13.57;;;18.20;91.50;;;;;;5023993;28;20788;-83
2021/05/20 09:15:44;;;;;;;15.80;14.20;;;18.10;91.40;;;;;;5041528;28;20402;-84
2021/05/20 09:18:14;;;;;;;16.73;15.13;;;18.00;90.50;;;;;;5037659;28;20452;-84
2021/05/20 09:20:48;;;;;;;17.60;14.93;;;17.90;91.00;;;;;;5041342;28;20397;-83
2021/05/20 09:23:17;;;;;;;15.70;14.10;;;17.90;92.50;;;;;;5041219;28;20819;-83
2021/05/20 09:25:45;;;;;;;16.10;14.57;;;18.00;93.00;;;;;;5038685;28;20457;-83
2021/05/20 09:28:13;;;;;;;14.70;13.20;;;18.00;92.90;;;;;;5040605;28;20459;-82
2021/05/20 09:30:44;;;;;;;14.47;13.13;;;17.90;91.20;;;;;;5041076;28;20420;-84
2021/05/20 09:33:14;;;;;;;13.97;12.53;;;17.70;90.30;;;;;;5040482;28;20420;-83
2021/05/20 09:35:51;;;;;;;13.90;12.60;;;17.70;91.30;;;;;;5041196;28;20441;-84
2021/05/20 09:38:19;;;;;;;14.77;13.47;;;17.90;91.20;;;;;;5041191;28;20396;-84
2021/05/20 09:41:03;;;;;;;13.07;11.87;;;18.00;90.80;;;;;;5040899;28;20417;-83
2021/05/20 09:43:36;;;;;;;13.63;12.40;;;18.10;89.10;;;;;;5040043;28;20496;-83
2021/05/20 09:46:18;;;;;;;11.77;10.67;;;17.90;89.80;;;;;;5021797;28;20428;-83
2021/05/20 09:48:48;;;;;;;13.23;11.93;;;17.80;87.80;;;;;;5040840;28;20439;-84
2021/05/20 09:51:25;;;;;;;14.63;13.33;;;17.70;88.00;;;;;;5040325;28;20424;-83
2021/05/20 09:53:53;;;;;;;15.47;13.90;;;17.60;89.30;;;;;;5023527;28;20428;-84
2021/05/20 09:56:32;;;;;;;14.27;12.90;;;17.50;88.60;;;;;;5041310;28;20421;-84
2021/05/20 09:58:58;;;;;;;14.30;13.00;;;17.50;89.70;;;;;;5040396;28;20417;-84
2021/05/20 10:01:24;;;;;;;13.80;12.50;;;17.60;91.00;;;;;;5039751;28;20460;-84
2021/05/20 10:03:52;;;;;;;12.77;11.47;;;17.70;91.60;;;;;;5044252;28;20809;-84
2021/05/20 10:06:34;;;;;;;13.93;12.50;;;17.90;92.30;;;;;;5044094;28;20201;-83
2021/05/20 10:09:02;;;;;;;14.50;13.00;;;18.20;92.10;;;;;;5044625;28;20445;-83
2021/05/20 10:11:30;;;;;;;13.80;12.40;;;18.40;91.80;;;;;;5042171;28;20815;-84
2021/05/20 10:13:58;;;;;;;12.80;11.50;;;18.70;91.40;;;;;;5026053;28;20418;-84
2021/05/20 10:16:24;;;;;;;14.03;12.10;;;18.90;90.50;;;;;;5044750;28;20511;-84
2021/05/20 10:18:50;;;;;;;14.00;12.50;;;18.90;86.40;;;;;;5042373;28;20511;-83
2021/05/20 10:21:16;;;;;;;15.27;13.60;;;19.10;86.60;;;;;;5044225;28;20507;-84
2021/05/20 10:23:42;;;;;;;14.17;12.83;;;19.20;86.40;;;;;;5043626;28;20664;-84
2021/05/20 10:26:10;;;;;;;16.93;14.73;;;19.20;81.30;;;;;;5024692;28;20190;-83
2021/05/20 10:28:36;;;;;;;17.87;16.30;;;19.20;82.50;;;;;;5042939;28;20943;-84
2021/05/20 10:31:04;;;;;;;13.57;12.27;;;19.40;84.80;;;;;;5044160;28;20523;-84
2021/05/20 10:33:30;;;;;;;14.67;13.17;;;19.40;83.80;;;;;;5042133;28;20178;-84
2021/05/20 10:35:57;;;;;;;15.60;14.13;;;19.50;83.70;;;;;;5043403;28;20466;-84
2021/05/20 10:38:32;;;;;;;15.97;14.30;;;19.60;83.40;;;;;;5026490;28;20429;-84
2021/05/20 10:41:26;;;;;;;17.03;15.30;;;19.70;82.90;;;;;;5026544;28;20415;-84
2021/05/20 10:44:04;;;;;;;15.20;13.60;;;19.90;83.40;;;;;;5017744;28;20429;-83
2021/05/20 10:46:30;;;;;;;17.00;15.30;;;20.00;84.20;;;;;;5041681;28;20473;-84
2021/05/20 10:49:01;;;;;;;16.40;14.70;;;20.10;80.40;;;;;;5043137;28;20915;-84
2021/05/20 10:51:35;;;;;;;15.30;13.80;;;20.10;80.10;;;;;;5043883;28;20430;-83
2021/05/20 10:54:04;;;;;;;14.30;12.80;;;20.10;78.40;;;;;;5043616;28;20412;-84
2021/05/20 10:56:30;;;;;;;13.40;12.20;;;20.10;78.00;;;;;;5041693;28;20423;-83
2021/05/20 10:58:58;;;;;;;17.93;12.70;;;20.20;77.80;;;;;;5042771;28;20922;-83
2021/05/20 11:01:27;;;;;;;14.40;12.13;;;20.10;77.00;;;;;;5026124;28;20425;-83
2021/05/20 11:03:57;;;;;;;13.63;12.40;;;20.20;79.10;;;;;;5017946;28;20424;-83
2021/05/20 11:06:46;;;;;;;14.33;12.83;;;20.30;78.60;;;;;;5043514;28;20515;-84
2021/05/20 11:09:14;;;;;;;15.20;13.80;;;20.50;79.30;;;;;;5029494;28;20439;-84
2021/05/20 11:11:39;;;;;;;15.30;13.90;;;20.70;78.30;;;;;;5042190;28;20417;-84
2021/05/20 11:14:12;;;;;;;13.77;12.47;;;20.70;74.30;;;;;;5023258;28;20427;-84
2021/05/20 11:16:40;;;;;;;14.07;12.67;;;20.80;74.80;;;;;;5024239;28;20256;-84
2021/05/20 11:19:24;;;;;;;14.30;13.00;;;20.60;71.90;;;;;;5043484;28;20400;-83
2021/05/20 11:22:00;;;;;;;13.43;12.03;;;20.50;74.60;;;;;;5023450;28;20421;-84
2021/05/20 11:24:32;;;;;;;15.53;14.13;;;20.50;73.40;;;;;;5031938;28;20456;-84
2021/05/20 11:26:59;;;;;;;14.70;13.20;;;20.50;76.10;;;;;;5062046;28;20466;-84
2021/05/20 11:29:27;;;;;;;15.67;14.37;;;20.60;75.70;;;;;;5063160;28;20423;-84
2021/05/20 11:32:18;;;;;;;15.27;13.67;;;20.60;74.90;;;;;;5052362;28;20409;-84
2021/05/20 11:37:22;;;;;;;14.00;12.80;;;20.40;70.70;;;;;;5053617;28;20738;-83
2021/05/20 11:39:48;;;;;;;14.13;12.93;;;20.30;72.20;;;;;;5052804;28;20996;-82
2021/05/20 11:42:32;;;;;;;14.03;12.63;;;20.20;68.60;;;;;;5035764;28;20416;-83
2021/05/20 11:44:59;;;;;;;11.87;10.87;;;20.20;71.10;;;;;;5053430;28;20213;-83
2021/05/20 11:47:25;;;;;;;13.27;12.20;;;20.20;71.30;;;;;;5052221;28;20452;-83
2021/05/20 11:49:51;;;;;;;12.07;11.07;;;20.40;69.70;;;;;;5052729;28;20439;-83
2021/05/20 11:52:18;;;;;;;13.73;12.53;;;20.60;69.60;;;;;;5053064;28;20260;-84
2021/05/20 11:54:49;;;;;;;11.93;11.03;;;20.50;69.10;;;;;;5051192;28;20515;-83
2021/05/20 11:57:16;;;;;;;12.57;11.57;;;20.30;67.60;;;;;;5053414;28;20443;-83
2021/05/20 11:59:45;;;;;;;13.23;12.30;;;20.20;71.50;;;;;;5052676;28;20415;-87
2021/05/20 12:02:28;;;;;;;11.23;10.30;;;20.10;69.90;;;;;;5053435;28;20409;-83
2021/05/20 12:05:12;;;;;;;12.40;11.50;;;20.00;70.60;;;;;;5052365;28;20494;-83
2021/05/20 12:07:40;;;;;;;10.67;9.83;;;20.00;70.90;;;;;;5051293;28;20478;-83
2021/05/20 12:10:27;;;;;;;8.97;8.27;;;20.10;72.30;;;;;;5053217;28;20421;-82
2021/05/20 12:13:06;;;;;;;8.80;8.20;;;20.10;67.70;;;;;;5052157;28;20829;-83
2021/05/20 12:15:32;;;;;;;9.50;8.90;;;20.20;68.60;;;;;;5052461;28;20395;-83
2021/05/20 12:18:00;;;;;;;9.43;7.73;;;20.20;66.60;;;;;;5052765;28;20419;-83
2021/05/20 12:20:26;;;;;;;8.87;8.27;;;20.30;72.10;;;;;;5052999;28;20408;-83
2021/05/20 12:22:52;;;;;;;8.37;7.77;;;20.10;64.90;;;;;;5052267;28;20419;-83
2021/05/20 12:25:21;;;;;;;8.40;7.77;;;20.00;66.20;;;;;;5050359;28;20964;-82
2021/05/20 12:27:50;;;;;;;8.63;8.03;;;20.10;66.80;;;;;;5050887;28;20459;-83
2021/05/20 12:30:24;;;;;;;9.63;8.43;;;20.20;66.10;;;;;;5051540;28;20420;-83
2021/05/20 12:33:03;;;;;;;7.93;7.33;;;20.40;69.70;;;;;;5050938;28;20459;-83
2021/05/20 12:35:40;;;;;;;8.47;7.87;;;20.50;65.60;;;;;;5052728;28;20462;-83